Saint Médard d'Aunis (17)                     Octobre 2021                                
  Température (°C) - Abri Young à ventilation mécanique 43502 (moy/5min)  Davis 7714 (moy/1min) Humidité Vent Davis (km/h) PeetBros Instromet Précipitations (mm) Pression (hPa) Divers  
Date Maxi USCRN /5min Mini  USCRN /5min Moy de 1440 relevés Moy (tx+tn)/2 Index chaleur moyen Index chaleur maxi Froid dû au vent moy/5min  Froid dû au vent mini/5min   Amplitude (tx-tn) Tx OMM/1min Tn OMM/1min Moy de 1440 relevés Moy (tx+tn)/2 Relative maxi Relative mini Relative moy de 1440 relevés Relative moy (hx+hn)/2 Point de rosée maxi Point de rosée mini Point de rosée moy 1440 relevés Vent moy maxi (10min) Vent  moyen (24h) Direction dominante Rafales (km/h) maxi Direction rafale maxi Rafales moy (24h) Rafales (km/h)   maxi Rafales (km/h)   maxi Total du jour (mm) Durée en heures et dixièmes Intensité maxi sur 1 min (mm/h) Maxi Mini Moy de 1440 relevés Moy (px+pn)/2 Variation Epaisseur neige (cm) Remarques diverses    
01/10/2021 19,8 7,1 13,05 13,46 13,19 20,1 12,27 6,2 12,5 19,8 6,3 13,01 13,05 94% 66% 87,9% 80,0% 15,4 6,0 11,03 20,26 9,72 SE 37,0 SSE 14,02 36,2 35 1,8 0,6 12,0 1023,5 1017,0 1019,32 1020,25 6,5   Ciel 2/8 à 8/8 le matin, 6/8 à 8/8 l'après-midi, pluie  
02/10/2021 18,7 10,8 15,83 14,73 16,13 19,3 13,87 9,7 7,8 18,7 10,6 15,85 14,65 95% 88% 92,8% 91,5% 17,2 10,0 14,62 33,16 18,14 S 62,8 S 25,91 53,8 56 19,4 6,1 12,0 1017,3 997,2 1007,84 1007,25 20,1   Ciel 2/8 à 8/8 le matin, 8/8 l'après-midi, pluie  
03/10/2021 18,5 9,4 14,65 13,97 14,68 19,1 12,87 8,7 9,1 18,6 9,3 14,63 13,95 93% 64% 84,6% 78,5% 16,5 8,0 11,95 36,69 16,58 WNW 61,2 SSE 21,95 58,9 58 15,6 4,2 48,0 1016,5 994,9 1007,23 1005,70 21,6   Ciel 8/8 à 7/8 le matin, pluie, entre 4/8 et 6/8 l'après-midi  
04/10/2021 20,7 9,8 14,30 15,28 14,48 21,0 13,38 8,2 10,8 20,7 9,9 14,34 15,30 93% 67% 87,1% 80,0% 15,6 8,5 12,08 27,36 11,47 SSE 38,6 SW 15,78 39,7 41 5,6 0,8 60,0 1017,5 1013,3 1016,24 1015,40 4,2   Ciel entre 2/8 et 8/8, averses l'après-midi et le soir  
05/10/2021 18,0 9,7 14,62 13,87 14,58 17,8 12,43 7,7 8,0 17,7 9,8 14,58 13,75 94% 67% 83,7% 80,5% 13,9 8,2 11,79 38,13 19,14 WNW 54,7 W 25,49 54,1 54 11,8 3,1 60,0 1022,3 1008,3 1014,93 1015,30 14,0   Ciel entre 5/8 et 8/8 le matin, pluie, averses, 8/8 à 6/8 l'après-midi  
06/10/2021 18,7 6,5 12,31 12,57 12,35 18,7 11,99 6,1 12,2 19,0 6,3 12,30 12,65 94% 64% 84,3% 79,0% 13,2 5,4 9,59 18,50 6,14 WNW 33,8 SSW 8,00 32,4 34 0,0 0,0 0,0 1028,0 1022,3 1026,10 1025,15 5,7   Ciel entre 2/8 et 7/8 le matin, 4/8 à 2/8 ensuite  
07/10/2021 20,1 5,9 12,97 13,04 12,93 19,9 12,83 5,6 14,2 20,6 5,7 12,95 13,15 94% 55% 80,5% 74,5% 12,9 5,1 9,40 13,70 5,77 NE 20,9 NE 7,91 21,7 19 0,0 0,0 0,0 1027,9 1025,2 1026,72 1026,55 2,7   Ciel entre 0/8 et 3/8  
08/10/2021 20,8 7,8 13,90 14,29 13,76 20,1 12,86 6,1 13,0 20,9 7,8 13,85 14,35 92% 53% 77,2% 72,5% 11,5 6,5 9,63 22,50 11,48 NE 37,0 NE 15,28 37,5 37 0,0 0,0 0,0 1026,4 1022,6 1024,73 1024,50 3,8   Ciel entre 0/8 et 2/8, voilé  
09/10/2021 20,5 9,1 13,68 14,81 13,63 20,2 12,75 7,3 11,3 20,6 9,1 13,60 14,85 92% 58% 79,5% 75,0% 13,1 7,7 9,96 19,94 10,75 NNE 32,2 ENE 14,43 32,1 30 0,0 0,0 0,0 1025,6 1023,0 1024,12 1024,30 2,6   Ciel entre 0/8 et 3/8, voilé  
10/10/2021 20,1 7,3 12,92 13,70 12,80 19,6 12,00 5,3 12,7 20,2 7,2 12,85 13,70 92% 53% 78,2% 72,5% 12,1 6,0 8,90 18,18 10,25 NNE 32,2 NE 13,83 31,6 28 0,2 0,1 12,0 1027,4 1025,0 1026,10 1026,20 2,4   Ciel entre 0/8 et 3/8, voilé  
11/10/2021 19,5 6,6 12,21 13,04 12,11 19,1 10,91 4,8 12,9 19,6 6,5 12,09 13,05 92% 57% 79,7% 74,5% 12,0 5,5 8,54 23,63 11,59 NNE 41,8 ENE 15,86 42,5 42 0,0 0,0 0,0 1029,3 1026,6 1027,70 1027,95 2,7   Brume, ciel entre 0/8 et 3/8  
12/10/2021 18,2 6,4 11,61 12,30 11,43 17,6 10,66 4,5 11,8 18,3 6,4 11,55 12,35 92% 49% 78,5% 70,5% 10,6 5,2 7,71 17,22 9,46 NNE 25,7 NE 12,52 26,9 24 0,0 0,0 0,0 1027,3 1023,5 1025,44 1025,40 3,8   Ciel 0/8 le matin, entre 0/8 et 3/8 l'après-midi  
13/10/2021 17,8 5,9 10,94 11,87 10,85 17,5 10,10 4,2 12,0 18,0 5,6 10,78 11,80 93% 58% 81,3% 75,5% 12,0 3,8 7,66 20,58 8,58 NE 30,6 ENE 11,61 29,8 28 0,0 0,0 0,0 1028,0 1024,8 1026,75 1026,40 3,2   Ciel 0/8 le matin, entre 0/8 et 3/8 l'après-midi  
14/10/2021 17,9 3,4 9,27 10,67 8,95 16,8 8,34 0,9 14,4 18,4 2,8 9,25 10,60 91% 46% 75,2% 68,5% 8,0 2,1 4,69 15,62 7,41 NE 27,4 ESE 10,46 27,9 28 0,0 0,0 0,0 1027,4 1019,8 1023,65 1023,60 7,6   Ciel 0/8  
15/10/2021 18,6 3,2 9,88 10,86 9,63 17,4 9,58 2,3 15,3 18,6 2,8 9,72 10,70 93% 44% 77,8% 68,5% 9,7 2,2 5,76 10,49 5,02 NE 17,7 N 6,78 17,9 16 0,0 0,0 0,0 1020,7 1018,6 1019,58 1019,65 2,1   Ciel entre 0/8 et 5/8  
16/10/2021 19,4 2,0 9,71 10,67 9,56 18,7 9,42 0,8 17,4 20,2 1,4 9,69 10,80 94% 48% 79,7% 71,0% 10,4 1,0 6,02 10,97 4,48 NE 17,7 ENE 6,39 17,3 17 0,0 0,0 0,0 1020,5 1017,5 1018,91 1019,00 3,0   Ciel 0/8  
17/10/2021 21,0 4,0 11,77 12,48 11,75 20,5 11,62 3,0 17,1 22,0 3,7 11,74 12,85 93% 56% 82,3% 74,5% 13,1 2,8 8,61 11,78 4,82 ESE 20,9 SE 6,91 20,6 20 0,0 0,0 0,0 1019,8 1016,6 1017,77 1018,20 3,2   Ciel entre 2/8 et 6/8  
18/10/2021 22,8 12,3 16,30 17,53 16,50 23,4 16,03 12,1 10,5 22,9 12,1 16,34 17,50 95% 67% 86,3% 81,0% 18,3 11,0 13,88 15,78 8,25 SE 30,6 SSE 11,86 29,7 26 0,0 0,0 0,0 1022,4 1019,8 1021,29 1021,10 2,6   Brouillard, ciel entre 0/8 et 8/8 le matin, entre 4/8 et 8/8 ensuite  
19/10/2021 25,6 11,4 18,12 18,53 18,21 25,7 17,20 10,9 14,2 25,8 11,5 18,18 18,65 92% 50% 74,8% 71,0% 15,4 10,1 13,23 25,25 13,27 SSE 38,6 SSE 18,33 41,1 * 0,0 0,0 0,0 1022,0 1015,4 1019,92 1018,70 6,6   Ciel 2/8 à 0/8  
20/10/2021 21,0 13,7 17,52 17,34 17,83 21,7 15,18 8,7 7,2 21,0 13,7 17,52 17,35 91% 69% 83,8% 80,0% 18,2 9,6 14,71 70,97 25,50 SSW 98,2 W 34,79 100,4 103 2,2 0,7 12,0 1015,6 1007,9 1012,79 1011,75 7,7   Ciel entre 3/8 et 8/8, averses,ligne de grains le soir avec vent violent  
21/10/2021 18,1 7,1 13,61 12,58 13,60 18,1 11,38 6,9 10,8 18,2 6,9 13,60 12,55 93% 72% 83,3% 82,5% 13,5 6,1 10,77 39,74 19,39 W 53,1 W 23,72 57,9 * 1,0 0,3 12,0 1019,7 1012,9 1017,10 1016,30 6,8   Ciel entre 0/8 et 8/8 le matin, averses, entre 2/8 et 7/8 l'après-midi  
22/10/2021 16,0 2,6 10,06 9,32 9,87 15,0 8,78 1,3 13,2 16,0 2,4 9,94 9,20 94% 50% 78,8% 72,0% 9,5 1,1 6,22 17,22 10,14 NNE 27,4 NNE 13,16 28,1 25 0,0 0,0 0,0 1027,9 1019,5 1024,05 1023,70 8,4   Ciel entre 2/8 et 8/8 le matin, 7/8 à 0/8 l'après-midi  
23/10/2021 16,1 1,8 7,89 8,96 7,63 15,2 6,78 0,1 14,3 16,7 1,5 7,71 9,10 92% 52% 77,8% 72,0% 7,8 0,6 3,95 16,58 8,05 ENE 30,6 E 11,10 29,6 29 0,0 0,0 0,0 1027,9 1022,5 1025,43 1025,20 5,4   Ciel 0/8  
24/10/2021 18,8 -0,2 9,46 9,29 9,31 18,2 8,68 -2,5 18,9 19,7 -0,5 9,45 9,60 93% 53% 79,8% 73,0% 10,7 -1,1 5,88 18,34 7,79 SSE 25,7 SSE 10,49 26,8 26 0,8 0,2 12,0 1023,0 1020,7 1021,84 1021,85 2,3   Ciel 0/8 à 4/8 le matin, entre 2/8 et 4/8 l'après-midi  
25/10/2021 18,4 7,4 13,61 12,88 13,78 18,9 13,45 7,4 10,9 18,4 7,4 13,64 12,90 94% 80% 90,9% 87,0% 17,0 6,5 12,13 18,02 5,73 WSW 24,1 WSW 7,92 23,2 22 2,8 0,6 12,0 1023,8 1019,9 1021,36 1021,85 3,9   Averses, brouillard le matin, ciel entre 6/8 et 8/8  
26/10/2021 18,3 5,7 10,59 12,02 10,72 18,8 10,55 5,4 12,5 18,9 5,6 10,64 12,25 95% 71% 90,7% 83,0% 16,3 5,0 9,09 11,78 2,86 SE 17,7 WSW 4,05 17,4 15 0,2 0,1 12,0 1026,6 1023,7 1025,49 1025,15 2,9   Brouillard, ciel entre 7/8 et 8/8, 4/8 en milieu d'après-midi  
27/10/2021 18,8 3,6 9,73 11,23 9,70 18,4 9,62 2,7 15,2 19,9 3,2 9,73 11,55 95% 54% 85,1% 74,5% 13,7 2,8 7,09 8,17 2,43 ESE 12,9 E 3,51 13,0 9 0,2 0,1 12,0 1025,7 1018,2 1022,56 1021,95 7,5   Ciel 3/8 à 0/8  
28/10/2021 19,2 3,8 11,48 11,51 11,42 19,2 10,23 1,9 15,3 19,3 3,6 11,44 11,45 94% 63% 82,7% 78,5% 13,0 3,0 8,47 21,38 11,22 SE 37,0 S 15,47 35,5 35 0,0 0,0 0,0 1018,2 1006,3 1012,97 1012,25 11,9   Ciel entre 0/8 et 3/8  
29/10/2021 15,5 12,9 13,99 14,20 13,98 15,6 12,51 9,6 2,7 15,4 12,9 13,99 14,15 93% 80% 87,1% 86,5% 13,9 10,3 11,85 26,55 14,06 SSE 38,6 SSE 19,08 37,6 41 5,6 2,0 12,0 1007,4 1000,1 1005,27 1003,75 7,3   Ciel entre 7/8 et 8/8  
30/10/2021 18,4 11,0 14,07 14,68 14,13 18,8 12,68 9,3 7,3 18,5 11,0 14,11 14,75 93% 77% 88,1% 85,0% 15,5 9,9 12,08 24,58 13,55 SSE 37,0 W 17,98 38,0 37 0,4 0,2 12,0 1008,4 997,2 1002,94 1002,80 11,2   Ciel entre 4/8 et 6/8, petite averse dans l'après-midi, 0/8 le soir  
31/10/2021 18,9 10,6 13,42 14,78 13,47 19,3 10,68 7,7 8,3 18,9 10,7 13,41 14,80 94% 76% 87,6% 85,0% 15,6 8,5 11,36 33,32 20,94 SSE 66,0 SSE 26,92 46,4 62 2,0 0,8 12,0 1007,1 1000,5 1003,82 1003,80 6,6   Ciel 0/8 à 6/8 le matin, entre 0/8 et 8/8 l'après-midi, averses, 0/8 le soir  
  Température (°C) - Abri Young à ventilation mécanique 43502 (moy/5min)  Davis 7714 (moy/1min) Humidité Vent Davis (km/h) PeetBros Instromet Précipitations (mm) Pression (hPa) Divers  
PT1000 Maxi USCRN /5min Mini  USCRN /5min Moy de 1440 relevés Moy (tx+tn)/2 Index chaleur moyen Index chaleur maxi Froid dû au vent moy/5min  Froid dû au vent mini/5min   Amplitude (tx-tn) Tx OMM/1min Tn OMM/1min Moy de 1440 relevés Moy (tx+tn)/2 Relative maxi Relative mini Relative moy de 1440 relevés Relative moy (hx+hn)/2 Point de rosée maxi Point de rosée mini Point de rosée moy 1440 relevés Vent moy maxi (10min) Vent  moyen (24h) Direction dominante Rafales (km/h) maxi Direction rafale maxi Rafales moy (24h) Rafales (km/h)   maxi Rafales (km/h)   maxi Total du jour (mm) Durée en heures et dixièmes Intensité maxi sur 1 min (mm/h) Maxi Mini Moy de 1440 relevés Moy (px+pn)/2 Variation Epaisseur neige (cm) Remarques diverses  
Maxi 25,6 13,7 18,12 18,53 18,21 25,7 17,20 12,1 18,9 25,8 13,7 18,18 18,65 95% 88% 92,8% 91,5% 18,3 11,0 14,71 70,97 25,50 SSE 98,2 W 34,79 100,4 103 19,4 6,1 60,0 1029,3 1026,6 1027,70 1027,95 21,6 0,0    
Mini 15,5 -0,2 7,89 8,96 7,63 15,0 6,78 -2,5 2,7 15,4 -0,5 7,71 9,10 91% 44% 74,8% 68,5% 7,8 -1,1 3,95 8,17 2,43   12,9   3,51 13,0 9       1007,1 994,9 1002,94 1002,80 2,1      
Moy 19,17 7,05 12,69 13,11 12,68 19,02 11,67 5,58 12,06 19,40 6,88 12,66 13,14 93,2% 61,5% 82,8% 77,4% 13,41 5,72 9,63 22,79 10,77   36,44   14,56 35,66 34,4       1021,97 1015,51 1019,03 1018,74 6,46      
Total                                                         69,6 19,6             0,0    
   
Observations    
Jours Rafales >= 36,0 km/h Rafales >= 57,6 km/h Rafales >= 75,6 km/h Rafales >= 100,8 km/h Précipi. >= 0,1 mm Précipi. >= 1,0 mm Précipi. >= 5,0 mm Précipi. >= 10,0 mm Tx <= 0 Tx <= -5 Tx <= -10 Tx >= 20 Tx >= 25 Tx >= 30 Tx >= 35 Tx >= 40 Tn <= 0 Tn <= -5 Tn <= -10 Tn <= -15 Tn <= -20 T moy <= 0 T moy <=     -5 T moy <=     -10 T moy >= 20 T moy >= 25 T moy >= 30 Grêle Grésil Brouillard Brume Orage Neige        
01/10/2021 1 0 0 0 1 1 0 0 0 0 0 0 0 0 0 0 0 0 0 0 0 0 0 0 0 0 0 0 0 0 0 0 0    
02/10/2021 1 1 0 0 1 1 1 1 0 0 0 0 0 0 0 0 0 0 0 0 0 0 0 0 0 0 0 0 0 0 0 0 0    
03/10/2021 1 1 0 0 1 1 1 1 0 0 0 0 0 0 0 0 0 0 0 0 0 0 0 0 0 0 0 0 0 0 0 0 0    
04/10/2021 1 0 0 0 1 1 1 0 0 0 0 1 0 0 0 0 0 0 0 0 0 0 0 0 0 0 0 0 0 0 0 0 0    
05/10/2021 1 0 0 0 1 1 1 1 0 0 0 0 0 0 0 0 0 0 0 0 0 0 0 0 0 0 0 0 0 0 0 0 0    
06/10/2021 0 0 0 0 0 0 0 0 0 0 0 0 0 0 0 0 0 0 0 0 0 0 0 0 0 0 0 0 0 0 0 0 0    
07/10/2021 0 0 0 0 0 0 0 0 0 0 0 1 0 0 0 0 0 0 0 0 0 0 0 0 0 0 0 0 0 0 0 0 0    
08/10/2021 1 0 0 0 0 0 0 0 0 0 0 1 0 0 0 0 0 0 0 0 0 0 0 0 0 0 0 0 0 0 0 0 0    
09/10/2021 0 0 0 0 0 0 0 0 0 0 0 1 0 0 0 0 0 0 0 0 0 0 0 0 0 0 0 0 0 0 0 0 0    
10/10/2021 0 0 0 0 1 0 0 0 0 0 0 1 0 0 0 0 0 0 0 0 0 0 0 0 0 0 0 0 0 0 0 0 0    
11/10/2021 1 0 0 0 0 0 0 0 0 0 0 0 0 0 0 0 0 0 0 0 0 0 0 0 0 0 0 0 0 0 1 0 0    
12/10/2021 0 0 0 0 0 0 0 0 0 0 0 0 0 0 0 0 0 0 0 0 0 0 0 0 0 0 0 0 0 0 0 0 0    
13/10/2021 0 0 0 0 0 0 0 0 0 0 0 0 0 0 0 0 0 0 0 0 0 0 0 0 0 0 0 0 0 0 0 0 0    
14/10/2021 0 0 0 0 0 0 0 0 0 0 0 0 0 0 0 0 0 0 0 0 0 0 0 0 0 0 0 0 0 0 0 0 0    
15/10/2021 0 0 0 0 0 0 0 0 0 0 0 0 0 0 0 0 0 0 0 0 0 0 0 0 0 0 0 0 0 0 0 0 0    
16/10/2021 0 0 0 0 0 0 0 0 0 0 0 0 0 0 0 0 0 0 0 0 0 0 0 0 0 0 0 0 0 0 0 0 0    
17/10/2021 0 0 0 0 0 0 0 0 0 0 0 1 0 0 0 0 0 0 0 0 0 0 0 0 0 0 0 0 0 0 0 0 0    
18/10/2021 0 0 0 0 0 0 0 0 0 0 0 1 0 0 0 0 0 0 0 0 0 0 0 0 0 0 0 0 0 1 0 0 0    
19/10/2021 1 0 0 0 0 0 0 0 0 0 0 1 1 0 0 0 0 0 0 0 0 0 0 0 0 0 0 0 0 0 0 0 0    
20/10/2021 1 1 1 0 1 1 0 0 0 0 0 1 0 0 0 0 0 0 0 0 0 0 0 0 0 0 0 0 0 0 0 0 0    
21/10/2021 1 0 0 0 1 1 0 0 0 0 0 0 0 0 0 0 0 0 0 0 0 0 0 0 0 0 0 0 0 0 0 0 0    
22/10/2021 0 0 0 0 0 0 0 0 0 0 0 0 0 0 0 0 0 0 0 0 0 0 0 0 0 0 0 0 0 0 0 0 0    
23/10/2021 0 0 0 0 0 0 0 0 0 0 0 0 0 0 0 0 0 0 0 0 0 0 0 0 0 0 0 0 0 0 0 0 0    
24/10/2021 0 0 0 0 1 0 0 0 0 0 0 0 0 0 0 0 1 0 0 0 0 0 0 0 0 0 0 0 0 0 0 0 0    
25/10/2021 0 0 0 0 1 1 0 0 0 0 0 0 0 0 0 0 0 0 0 0 0 0 0 0 0 0 0 0 0 1 0 0 0    
26/10/2021 0 0 0 0 1 0 0 0 0 0 0 0 0 0 0 0 0 0 0 0 0 0 0 0 0 0 0 0 0 1 0 0 0    
27/10/2021 0 0 0 0 1 0 0 0 0 0 0 0 0 0 0 0 0 0 0 0 0 0 0 0 0 0 0 0 0 0 0 0 0    
28/10/2021 1 0 0 0 0 0 0 0 0 0 0 0 0 0 0 0 0 0 0 0 0 0 0 0 0 0 0 0 0 0 0 0 0    
29/10/2021 1 0 0 0 1 1 1 0 0 0 0 0 0 0 0 0 0 0 0 0 0 0 0 0 0 0 0 0 0 0 0 0 0        
30/10/2021 1 0 0 0 1 0 0 0 0 0 0 0 0 0 0 0 0 0 0 0 0 0 0 0 0 0 0 0 0 0 0 0 0    
31/10/2021 1 1 0 0 1 1 0 0 0 0 0 0 0 0 0 0 0 0 0 0 0 0 0 0 0 0 0 0 0 0 0 0 0    
   
  Rafales >= 36,0 km/h Rafales >= 57,6 km/h Rafales >= 75,6 km/h Rafales >= 100,8 km/h Précipi. >= 0,1 mm Précipi. >= 1,0 mm Précipi. >= 5,0 mm Précipi. >= 10,0 mm Tx <=0 Tx <= -5 Tx <= -10 Tx >= 20 Tx >= 25 Tx >= 30 Tx >= 35 Tx >= 40 Tn <= 0 Tn <= -5 Tn <= -10 Tn <= -15 Tn <= -20 T moy <= 0 T moy <=  -5 T moy <=  -10 T moy >= 20 T moy >= 25 T moy >= 30 Grêle Grésil Brouillard Brume Orage Neige        
Total 14 4 1 0 15 10 5 3 0 0 0 9 1 0 0 0 1 0 0 0 0 0 0 0 0 0 0 0 0 3 1 0 0